Time;durP1;ratioP1;P1;durP2;ratioP2;P2;SDS_P1;SDS_P2;PMS_P1;PMS_P2;Temp;Humidity;BMP_temperature;BMP_pressure;BME280_temperature;BME280_humidity;BME280_pressure;Samples;Min_cycle;Max_cycle;Signal;HPM_P1;HPM_P2
2021/12/10 00:01:09;;;;;;;22.17;11.80;;;7.00;69.20;;;;;;5055694;28;20112;-87
2021/12/10 00:03:39;;;;;;;19.17;10.90;;;7.10;68.90;;;;;;5059018;28;20028;-87
2021/12/10 00:06:10;;;;;;;26.10;13.60;;;7.10;69.10;;;;;;5056750;28;20033;-89
2021/12/10 00:08:38;;;;;;;24.38;12.45;;;7.20;68.80;;;;;;5055763;28;20021;-88
2021/12/10 00:11:14;;;;;;;25.13;13.57;;;7.00;69.90;;;;;;5055288;28;20065;-89
2021/12/10 00:13:44;;;;;;;23.65;12.27;;;7.40;68.50;;;;;;5055429;28;20025;-89
2021/12/10 00:16:12;;;;;;;30.75;14.65;;;7.20;68.20;;;;;;5075134;28;20025;-89
2021/12/10 00:18:42;;;;;;;27.80;13.73;;;6.90;69.70;;;;;;5075411;28;20028;-87
2021/12/10 00:21:08;;;;;;;27.90;13.82;;;6.80;70.50;;;;;;5075140;28;20036;-88
2021/12/10 00:23:34;;;;;;;31.67;15.30;;;7.10;69.60;;;;;;5063048;28;20033;-88
2021/12/10 00:26:04;;;;;;;31.90;14.95;;;7.00;69.50;;;;;;5055381;28;20045;-90
2021/12/10 00:28:40;;;;;;;25.67;13.20;;;6.70;70.50;;;;;;5055117;28;20021;-89
2021/12/10 00:31:31;;;;;;;29.55;13.45;;;6.80;70.90;;;;;;5059619;28;20036;-88
2021/12/10 00:34:15;;;;;;;26.05;13.20;;;7.00;70.20;;;;;;5075129;28;20032;-88
2021/12/10 00:36:42;;;;;;;26.80;12.90;;;7.30;69.90;;;;;;5074909;28;20059;-87
2021/12/10 00:39:17;;;;;;;25.80;12.88;;;7.50;68.60;;;;;;5074975;28;20016;-88
2021/12/10 00:41:43;;;;;;;24.40;12.73;;;7.70;68.00;;;;;;5065365;28;20078;-88
2021/12/10 00:44:09;;;;;;;27.83;12.80;;;7.80;67.40;;;;;;5054820;28;20021;-88
2021/12/10 00:46:35;;;;;;;28.15;13.23;;;7.90;67.10;;;;;;5055113;28;20052;-88
2021/12/10 00:49:02;;;;;;;26.00;13.05;;;8.00;67.80;;;;;;5054617;28;20032;-87
2021/12/10 00:51:28;;;;;;;29.35;13.70;;;8.10;66.50;;;;;;5054671;28;20484;-88
2021/12/10 00:53:54;;;;;;;26.50;12.50;;;8.10;66.50;;;;;;5054249;28;20074;-88
2021/12/10 00:56:20;;;;;;;27.35;13.35;;;8.10;65.90;;;;;;5054640;28;20108;-88
2021/12/10 00:58:46;;;;;;;22.33;11.88;;;8.00;67.20;;;;;;5054706;28;20452;-88
2021/12/10 01:01:21;;;;;;;24.65;12.05;;;8.00;66.60;;;;;;5054879;28;20025;-86
2021/12/10 01:03:55;;;;;;;23.88;12.15;;;7.40;67.90;;;;;;5054617;28;20025;-86
2021/12/10 01:06:24;;;;;;;23.95;13.18;;;7.10;68.90;;;;;;5054969;28;20368;-87
2021/12/10 01:08:56;;;;;;;23.92;11.80;;;7.10;69.80;;;;;;5054775;28;20041;-87
2021/12/10 01:11:29;;;;;;;24.90;12.95;;;7.00;69.70;;;;;;5054011;28;20040;-87
2021/12/10 01:14:09;;;;;;;23.77;12.45;;;7.10;70.20;;;;;;5054376;28;20040;-87
2021/12/10 01:27:40;;;;;;;33.05;15.95;;;7.00;69.50;;;;;;5055157;28;20017;-88
2021/12/10 01:30:14;;;;;;;30.77;14.93;;;7.10;69.40;;;;;;5053798;28;20025;-86
2021/12/10 01:32:46;;;;;;;35.20;16.75;;;7.40;68.50;;;;;;5053984;28;20029;-87
2021/12/10 01:35:18;;;;;;;36.72;17.48;;;7.10;69.20;;;;;;5053988;28;20466;-88
2021/12/10 01:37:44;;;;;;;31.75;16.42;;;7.30;68.10;;;;;;5070575;28;20059;-87
2021/12/10 01:40:10;;;;;;;33.40;16.63;;;7.30;69.50;;;;;;5073632;28;20055;-88
2021/12/10 01:42:44;;;;;;;33.28;15.90;;;7.40;68.50;;;;;;5073724;28;20025;-87
2021/12/10 01:45:47;;;;;;;35.20;16.98;;;7.20;69.00;;;;;;5073647;28;20028;-88
2021/12/10 01:48:39;;;;;;;33.45;16.23;;;7.40;68.70;;;;;;5058136;28;20051;-87
2021/12/10 01:51:07;;;;;;;31.70;15.10;;;7.40;68.70;;;;;;5053141;28;20106;-88
2021/12/10 01:53:35;;;;;;;35.58;16.42;;;7.90;67.30;;;;;;5053569;28;20044;-88
2021/12/10 01:56:09;;;;;;;35.58;17.10;;;8.10;66.20;;;;;;5053370;28;20036;-88
2021/12/10 01:58:35;;;;;;;34.85;15.48;;;8.20;66.20;;;;;;5053345;28;20025;-88
2021/12/10 02:01:12;;;;;;;39.22;16.25;;;8.00;66.30;;;;;;5053410;28;20039;-88
2021/12/10 02:03:39;;;;;;;40.03;18.20;;;8.10;66.00;;;;;;5053787;28;20021;-88
2021/12/10 02:06:07;;;;;;;38.70;17.40;;;8.10;66.30;;;;;;5053272;28;20132;-88
2021/12/10 02:08:33;;;;;;;37.47;15.77;;;7.70;67.10;;;;;;5053156;28;20033;-88
2021/12/10 02:10:59;;;;;;;32.63;15.10;;;7.60;67.80;;;;;;5053235;28;20037;-88
2021/12/10 02:13:25;;;;;;;32.80;15.07;;;7.50;67.90;;;;;;5053166;28;20024;-88
2021/12/10 02:15:51;;;;;;;34.45;16.13;;;7.10;68.70;;;;;;5056404;28;20028;-88
2021/12/10 02:18:17;;;;;;;38.00;19.00;;;7.00;68.80;;;;;;5073109;28;20107;-88
2021/12/10 02:21:01;;;;;;;38.75;16.88;;;7.10;68.70;;;;;;5073027;28;20096;-88
2021/12/10 02:23:29;;;;;;;33.33;14.70;;;7.40;68.90;;;;;;5072922;28;20020;-87
2021/12/10 02:25:55;;;;;;;32.45;14.95;;;7.30;67.70;;;;;;5067425;28;20025;-88
2021/12/10 02:28:22;;;;;;;26.88;13.20;;;7.30;68.70;;;;;;5053290;28;20108;-88
2021/12/10 02:30:48;;;;;;;28.38;13.73;;;7.40;67.80;;;;;;5052807;28;20036;-89
2021/12/10 02:33:16;;;;;;;26.15;12.80;;;7.00;69.30;;;;;;5052788;28;20032;-88
2021/12/10 02:35:43;;;;;;;27.73;12.88;;;6.90;69.20;;;;;;5070092;28;20450;-87
2021/12/10 02:38:09;;;;;;;27.23;11.82;;;6.50;70.80;;;;;;5073044;28;20020;-88
2021/12/10 02:40:39;;;;;;;25.73;12.65;;;6.70;70.80;;;;;;5072640;28;20545;-88
2021/12/10 02:43:09;;;;;;;22.52;11.20;;;6.70;70.30;;;;;;5072855;28;20450;-89
2021/12/10 02:45:58;;;;;;;24.75;12.23;;;7.00;69.60;;;;;;5072761;28;20032;-90
2021/12/10 02:48:24;;;;;;;24.35;12.65;;;7.50;68.40;;;;;;5073410;28;20116;-87
2021/12/10 02:50:52;;;;;;;21.92;11.85;;;7.80;67.50;;;;;;5069941;28;20121;-90
2021/12/10 02:53:23;;;;;;;19.52;10.55;;;7.70;67.00;;;;;;5052568;28;20028;-89
2021/12/10 02:55:49;;;;;;;22.75;11.73;;;7.70;67.00;;;;;;5052735;28;20028;-88
2021/12/10 02:58:15;;;;;;;18.30;10.73;;;7.50;68.00;;;;;;5052947;28;20345;-87
2021/12/10 03:01:17;;;;;;;21.80;11.32;;;7.80;66.70;;;;;;5052498;28;20028;-88
2021/12/10 03:03:43;;;;;;;21.05;11.07;;;7.50;66.50;;;;;;5036660;28;20146;-87
2021/12/10 03:06:11;;;;;;;21.02;11.48;;;7.60;67.10;;;;;;5052471;28;20067;-87
2021/12/10 03:08:44;;;;;;;17.60;9.70;;;8.10;65.80;;;;;;5053211;28;20025;-88
2021/12/10 03:11:13;;;;;;;18.25;10.88;;;8.00;65.10;;;;;;5052801;28;20519;-87
2021/12/10 03:13:40;;;;;;;20.20;11.32;;;7.80;66.20;;;;;;5052446;28;20032;-87
2021/12/10 03:16:07;;;;;;;21.60;11.70;;;7.90;66.00;;;;;;5052239;28;20499;-88
2021/12/10 03:18:34;;;;;;;20.02;11.45;;;7.60;67.20;;;;;;5052564;28;20460;-87
2021/12/10 03:21:01;;;;;;;19.33;10.75;;;7.80;66.20;;;;;;5054547;28;20029;-87
2021/12/10 03:23:27;;;;;;;25.23;11.82;;;7.50;66.50;;;;;;5072611;28;20028;-87
2021/12/10 03:25:53;;;;;;;22.83;11.80;;;7.50;66.70;;;;;;5072378;28;20025;-88
2021/12/10 03:28:19;;;;;;;18.45;10.98;;;7.30;67.40;;;;;;5064790;28;20139;-87
2021/12/10 03:30:50;;;;;;;22.23;11.82;;;6.80;68.60;;;;;;5052149;28;20044;-88
2021/12/10 03:36:45;;;;;;;20.58;11.05;;;7.00;68.30;;;;;;5057291;28;20438;-88
2021/12/10 03:39:14;;;;;;;23.50;12.48;;;6.60;69.60;;;;;;5056156;28;20025;-88
2021/12/10 03:41:41;;;;;;;21.88;11.90;;;6.50;69.40;;;;;;5055846;28;20025;-90
2021/12/10 03:44:06;;;;;;;18.67;10.40;;;6.50;69.80;;;;;;5056069;28;20377;-88
2021/12/10 03:46:32;;;;;;;19.65;10.98;;;6.70;69.90;;;;;;5055926;28;20537;-87
2021/12/10 03:49:03;;;;;;;22.80;11.80;;;7.20;67.40;;;;;;5068314;28;20528;-88
2021/12/10 03:51:29;;;;;;;;;;;7.50;67.10;;;;;;5068578;28;20087;-87
2021/12/10 03:53:55;;;;;;;25.85;12.48;;;7.90;66.00;;;;;;5055742;28;19912;-88
2021/12/10 03:56:24;;;;;;;22.48;11.98;;;7.90;65.10;;;;;;5055878;28;20083;-88
2021/12/10 03:58:51;;;;;;;21.63;12.07;;;7.70;65.50;;;;;;5070833;28;20040;-88
2021/12/10 04:01:21;;;;;;;20.88;11.93;;;7.80;65.30;;;;;;5058351;28;20025;-86
2021/12/10 04:03:50;;;;;;;25.30;13.48;;;7.90;65.10;;;;;;5075672;28;20024;-89
2021/12/10 04:06:17;;;;;;;23.48;12.02;;;7.50;65.80;;;;;;5062620;28;20025;-87
2021/12/10 04:12:12;;;;;;;22.73;12.18;;;6.80;67.90;;;;;;5056584;28;20056;-89
2021/12/10 04:14:38;;;;;;;26.60;13.77;;;7.10;67.50;;;;;;5055407;28;20032;-87
2021/12/10 04:17:05;;;;;;;25.15;13.15;;;7.60;66.60;;;;;;5075073;28;20032;-87
2021/12/10 04:19:33;;;;;;;26.38;13.63;;;7.90;64.80;;;;;;5062222;28;20395;-86
2021/12/10 04:22:00;;;;;;;25.52;14.27;;;8.00;64.10;;;;;;5056782;28;20025;-87
2021/12/10 04:24:30;;;;;;;26.45;13.57;;;8.00;64.60;;;;;;5063678;28;20063;-88
2021/12/10 04:26:57;;;;;;;24.55;13.32;;;7.70;64.60;;;;;;5062977;28;20017;-87
2021/12/10 04:29:23;;;;;;;27.85;15.63;;;7.40;66.60;;;;;;5075139;28;20498;-87
2021/12/10 04:31:52;;;;;;;23.98;13.25;;;7.80;65.70;;;;;;5075063;28;20051;-87
2021/12/10 04:34:18;;;;;;;31.20;14.93;;;7.50;65.50;;;;;;5072482;28;20468;-86
2021/12/10 04:36:45;;;;;;;19.55;11.73;;;7.60;66.50;;;;;;5071988;28;20051;-86
2021/12/10 04:39:11;;;;;;;21.80;12.90;;;7.50;65.40;;;;;;5074801;28;20032;-88
2021/12/10 04:41:38;;;;;;;19.95;11.93;;;7.70;65.00;;;;;;5075012;28;20025;-87
2021/12/10 04:44:04;;;;;;;22.33;12.55;;;7.50;65.50;;;;;;5074331;28;20120;-87
2021/12/10 04:46:30;;;;;;;30.35;16.50;;;7.80;65.00;;;;;;5074767;28;20021;-87
2021/12/10 04:48:59;;;;;;;23.38;13.57;;;7.70;64.90;;;;;;5075089;28;20387;-87
2021/12/10 04:51:31;;;;;;;21.58;12.10;;;7.60;64.80;;;;;;5074508;28;20059;-87
2021/12/10 04:53:58;;;;;;;26.02;13.38;;;7.40;64.80;;;;;;5074832;28;20017;-87
2021/12/10 04:56:24;;;;;;;22.88;12.98;;;7.10;66.10;;;;;;5074592;28;20028;-86
2021/12/10 04:58:51;;;;;;;27.70;14.80;;;7.50;65.70;;;;;;5074494;28;20028;-89
2021/12/10 05:01:17;;;;;;;25.73;14.13;;;7.50;65.90;;;;;;5074796;28;20106;-87
2021/12/10 05:03:43;;;;;;;26.45;13.63;;;7.90;64.40;;;;;;5074344;28;20112;-87
2021/12/10 05:06:08;;;;;;;28.25;14.90;;;8.30;63.10;;;;;;5069035;28;20029;-87
2021/12/10 05:08:36;;;;;;;31.52;17.02;;;8.40;62.90;;;;;;5054489;28;20029;-86
2021/12/10 05:11:06;;;;;;;25.88;13.55;;;8.50;62.60;;;;;;5054243;28;20033;-87
2021/12/10 05:13:32;;;;;;;29.77;14.48;;;8.70;62.40;;;;;;5054275;28;20029;-86
2021/12/10 05:15:59;;;;;;;26.50;14.73;;;8.30;62.50;;;;;;5054192;28;20427;-86
2021/12/10 05:18:27;;;;;;;28.67;14.60;;;7.70;63.90;;;;;;5054102;28;20029;-86
2021/12/10 05:20:54;;;;;;;31.70;16.33;;;7.40;64.70;;;;;;5053960;28;20492;-85
2021/12/10 05:23:21;;;;;;;36.42;19.58;;;7.60;65.40;;;;;;5054044;28;20024;-85
2021/12/10 05:25:48;;;;;;;37.40;19.10;;;7.60;64.70;;;;;;5054062;28;20025;-85
2021/12/10 05:28:14;;;;;;;36.30;18.50;;;7.70;64.80;;;;;;5054090;28;20021;-86
2021/12/10 05:30:40;;;;;;;55.88;27.38;;;8.10;64.30;;;;;;5053840;28;20403;-87
2021/12/10 05:33:13;;;;;;;47.47;24.30;;;8.20;63.60;;;;;;5068340;28;20027;-88
2021/12/10 05:35:39;;;;;;;34.43;16.73;;;8.80;62.40;;;;;;4358647;28;10021451;-86
2021/12/10 05:38:05;;;;;;;40.90;19.70;;;8.70;61.80;;;;;;5070367;28;20498;-85
2021/12/10 05:40:31;;;;;;;36.80;19.02;;;8.70;62.10;;;;;;5056607;28;20514;-87
2021/12/10 05:42:56;;;;;;;35.92;18.52;;;8.90;61.90;;;;;;5059084;28;20109;-86
2021/12/10 05:45:23;;;;;;;58.75;28.33;;;8.80;61.60;;;;;;5059632;28;20029;-85
2021/12/10 05:47:49;;;;;;;49.33;25.52;;;8.60;62.20;;;;;;5056993;28;20024;-85
2021/12/10 05:50:18;;;;;;;54.40;28.52;;;8.90;61.30;;;;;;5075457;28;20056;-86
2021/12/10 05:52:45;;;;;;;70.82;32.60;;;8.60;62.20;;;;;;5076180;28;20420;-87
2021/12/10 05:55:12;;;;;;;69.88;33.50;;;8.90;61.00;;;;;;5075862;28;20024;-87
2021/12/10 05:57:38;;;;;;;57.05;27.17;;;8.90;61.30;;;;;;5076377;28;20459;-86
2021/12/10 06:00:09;;;;;;;71.38;33.40;;;8.70;61.70;;;;;;5075713;28;20111;-86
2021/12/10 06:02:35;;;;;;;64.70;32.08;;;8.90;61.10;;;;;;5076311;28;20024;-87
2021/12/10 06:05:04;;;;;;;67.35;33.10;;;9.10;61.00;;;;;;5075545;28;20027;-88
2021/12/10 06:07:30;;;;;;;54.72;25.95;;;9.30;60.20;;;;;;5076292;28;20047;-87
2021/12/10 06:09:56;;;;;;;55.50;28.17;;;9.30;60.20;;;;;;5076005;28;20486;-88
2021/12/10 06:12:22;;;;;;;58.65;27.63;;;9.30;60.50;;;;;;5075249;28;20028;-87
2021/12/10 06:14:48;;;;;;;53.20;25.80;;;9.00;60.40;;;;;;5075733;28;20024;-87
2021/12/10 06:17:14;;;;;;;56.47;26.02;;;8.20;62.10;;;;;;5075391;28;20122;-87
2021/12/10 06:19:39;;;;;;;53.78;23.98;;;8.30;62.50;;;;;;5075080;28;20020;-87
2021/12/10 06:22:06;;;;;;;48.45;22.90;;;8.10;62.90;;;;;;5076028;28;20070;-87
2021/12/10 06:24:32;;;;;;;42.63;20.60;;;7.90;63.00;;;;;;5070682;28;20020;-87
2021/12/10 06:26:58;;;;;;;41.33;20.13;;;8.10;63.50;;;;;;5056017;28;20044;-87
2021/12/10 06:29:25;;;;;;;42.58;19.92;;;8.00;63.40;;;;;;5069544;28;20078;-86
2021/12/10 06:31:52;;;;;;;40.75;20.40;;;7.50;64.40;;;;;;5056454;28;20040;-86
2021/12/10 06:34:19;;;;;;;47.50;21.25;;;7.20;66.00;;;;;;5074160;28;20402;-86
2021/12/10 06:36:44;;;;;;;48.30;22.60;;;7.30;65.80;;;;;;5076141;28;20031;-85
2021/12/10 06:39:11;;;;;;;55.65;22.55;;;7.40;66.00;;;;;;5076170;28;20023;-88
2021/12/10 06:41:37;;;;;;;54.35;23.83;;;7.40;66.00;;;;;;5076144;28;20024;-89
2021/12/10 06:44:21;;;;;;;47.83;21.92;;;7.50;66.00;;;;;;5077993;28;20039;-85
2021/12/10 06:46:47;;;;;;;44.15;20.83;;;7.50;65.70;;;;;;5081080;22;20028;-87
2021/12/10 06:50:09;;;;;;;45.97;21.67;;;7.30;66.00;;;;;;5073819;28;20037;-89
2021/12/10 06:55:48;;;;;;;46.42;21.42;;;7.50;66.20;;;;;;5108026;22;20048;-87
2021/12/10 06:58:14;;;;;;;49.75;23.05;;;7.90;64.30;;;;;;5013888;28;20057;-87
2021/12/10 07:01:00;;;;;;;53.20;24.30;;;7.90;64.30;;;;;;5015939;28;20021;-86
2021/12/10 07:03:28;;;;;;;50.85;22.65;;;8.20;64.20;;;;;;5033467;28;20071;-85
2021/12/10 07:05:57;;;;;;;46.63;21.83;;;8.50;63.50;;;;;;5016565;28;20014;-86
2021/12/10 07:08:26;;;;;;;53.70;23.85;;;8.70;62.60;;;;;;5037233;28;20139;-85
2021/12/10 07:10:52;;;;;;;47.10;23.15;;;8.70;62.60;;;;;;5019861;28;20115;-86
2021/12/10 07:13:18;;;;;;;44.75;22.92;;;9.00;61.80;;;;;;5020165;28;20025;-86
2021/12/10 07:15:47;;;;;;;48.80;23.48;;;9.30;61.20;;;;;;5019832;28;20029;-85
2021/12/10 07:18:13;;;;;;;51.90;24.90;;;9.50;60.80;;;;;;5037553;28;20021;-86
2021/12/10 07:20:41;;;;;;;58.92;29.05;;;9.80;60.20;;;;;;5019840;28;20021;-85
2021/12/10 07:23:07;;;;;;;55.10;27.40;;;9.80;59.50;;;;;;5019784;28;20071;-85
2021/12/10 07:25:33;;;;;;;51.00;26.80;;;9.60;60.40;;;;;;5037267;28;20030;-85
2021/12/10 07:27:59;;;;;;;46.28;24.08;;;9.80;60.00;;;;;;5019629;28;20522;-85
2021/12/10 07:30:27;;;;;;;48.40;26.35;;;9.80;59.50;;;;;;5037367;28;20037;-86
2021/12/10 07:32:53;;;;;;;59.83;30.52;;;9.60;60.10;;;;;;5020193;28;20042;-85
2021/12/10 07:35:20;;;;;;;53.58;28.35;;;9.50;59.80;;;;;;5019516;28;20022;-85
2021/12/10 07:37:47;;;;;;;48.92;24.92;;;9.90;59.50;;;;;;5019473;28;20094;-85
2021/12/10 07:40:22;;;;;;;51.78;25.80;;;10.00;59.30;;;;;;5019664;28;20028;-85
2021/12/10 07:42:48;;;;;;;49.97;24.63;;;9.80;59.60;;;;;;5019518;28;20022;-85
2021/12/10 07:45:15;;;;;;;56.40;29.23;;;10.00;59.10;;;;;;5019692;28;20029;-86
2021/12/10 07:47:41;;;;;;;63.67;32.95;;;10.20;58.90;;;;;;5019306;28;20057;-85
2021/12/10 07:50:20;;;;;;;54.22;29.67;;;9.90;59.10;;;;;;5019310;28;20530;-87
2021/12/10 07:52:48;;;;;;;47.55;24.65;;;9.40;60.20;;;;;;5019235;28;20025;-86
2021/12/10 07:55:15;;;;;;;47.05;25.65;;;8.80;62.10;;;;;;5019387;28;20037;-86
2021/12/10 07:57:42;;;;;;;52.00;26.70;;;8.90;62.20;;;;;;5018816;28;20156;-87
2021/12/10 08:00:12;;;;;;;54.10;29.30;;;8.70;62.70;;;;;;5019187;28;20026;-85
2021/12/10 08:02:38;;;;;;;54.40;26.08;;;8.80;63.00;;;;;;5018939;28;20045;-86
2021/12/10 08:05:04;;;;;;;52.70;27.05;;;8.70;62.30;;;;;;5018795;28;20071;-85
2021/12/10 08:07:30;;;;;;;52.10;25.77;;;8.80;62.20;;;;;;5018983;28;20021;-85
2021/12/10 08:09:56;;;;;;;47.63;26.02;;;8.70;62.90;;;;;;5018853;28;20036;-86
2021/12/10 08:12:22;;;;;;;50.15;25.40;;;8.80;62.90;;;;;;5018622;28;20120;-86
2021/12/10 08:14:52;;;;;;;56.45;27.38;;;9.20;62.00;;;;;;5018895;28;20443;-86
2021/12/10 08:17:19;;;;;;;40.67;22.23;;;9.70;61.20;;;;;;4309170;28;10000672;-85
2021/12/10 08:19:47;;;;;;;44.10;23.15;;;9.90;59.60;;;;;;4981448;28;20490;-85
2021/12/10 08:22:14;;;;;;;41.97;21.85;;;9.40;60.80;;;;;;4999138;28;20018;-85
2021/12/10 08:24:41;;;;;;;40.60;20.77;;;9.30;61.40;;;;;;4998815;28;20081;-85
2021/12/10 08:27:07;;;;;;;46.60;23.52;;;9.20;61.50;;;;;;4999015;28;20075;-86
2021/12/10 08:29:33;;;;;;;46.67;24.00;;;9.60;61.60;;;;;;4999061;28;20045;-86
2021/12/10 08:31:59;;;;;;;43.58;22.27;;;10.10;59.90;;;;;;4998988;28;20036;-86
2021/12/10 08:34:25;;;;;;;51.38;25.17;;;10.00;59.90;;;;;;4998712;28;20018;-86
2021/12/10 08:36:51;;;;;;;54.75;29.25;;;9.90;59.50;;;;;;4998924;28;20071;-86
2021/12/10 08:39:17;;;;;;;61.65;32.25;;;10.10;59.70;;;;;;4998775;28;20045;-86
2021/12/10 08:41:43;;;;;;;177.70;95.57;;;10.60;58.70;;;;;;4998807;28;20117;-87
2021/12/10 08:44:10;;;;;;;230.93;122.93;;;11.40;57.40;;;;;;4998635;28;20117;-86
2021/12/10 08:46:37;;;;;;;228.70;112.25;;;11.90;56.30;;;;;;4998775;28;20022;-86
2021/12/10 08:49:04;;;;;;;283.77;129.85;;;12.20;55.70;;;;;;4998875;28;20021;-86
2021/12/10 08:51:41;;;;;;;115.40;55.78;;;12.70;54.60;;;;;;4998475;28;20030;-86
2021/12/10 08:54:08;;;;;;;86.55;42.47;;;12.30;55.20;;;;;;4998371;28;20018;-86
2021/12/10 08:56:35;;;;;;;53.65;26.92;;;12.10;55.10;;;;;;4998601;28;20138;-86
2021/12/10 08:59:02;;;;;;;48.97;25.75;;;11.80;55.50;;;;;;4998512;28;20453;-86
2021/12/10 09:01:32;;;;;;;41.58;23.10;;;11.70;55.80;;;;;;4998411;28;20454;-87
2021/12/10 09:04:01;;;;;;;45.87;25.30;;;11.70;55.90;;;;;;4998540;28;20029;-86
2021/12/10 09:06:29;;;;;;;44.92;23.55;;;11.20;56.60;;;;;;4998237;28;20014;-85
2021/12/10 09:08:56;;;;;;;45.58;23.33;;;10.40;58.20;;;;;;4998308;28;20026;-87
2021/12/10 09:11:23;;;;;;;42.13;21.88;;;10.10;59.60;;;;;;4997888;28;20432;-87
2021/12/10 09:13:49;;;;;;;40.00;21.08;;;10.10;59.20;;;;;;4998092;28;20110;-85
2021/12/10 09:16:25;;;;;;;41.35;21.85;;;10.30;59.30;;;;;;4998074;28;20025;-85
2021/12/10 09:18:53;;;;;;;39.55;21.90;;;10.10;59.70;;;;;;4997885;28;20108;-85
2021/12/10 09:21:21;;;;;;;41.65;21.92;;;9.90;59.90;;;;;;4997915;28;20030;-86
2021/12/10 09:23:47;;;;;;;39.55;20.67;;;9.70;60.30;;;;;;4998374;28;20025;-86
2021/12/10 09:26:16;;;;;;;39.70;20.90;;;9.60;60.30;;;;;;4997904;28;20029;-86
2021/12/10 09:28:44;;;;;;;33.50;17.85;;;9.10;61.20;;;;;;4998086;28;20418;-86
2021/12/10 09:31:12;;;;;;;35.45;18.58;;;8.60;62.00;;;;;;4997061;28;20034;-86
2021/12/10 09:33:38;;;;;;;35.97;18.95;;;8.30;62.90;;;;;;4997792;28;20022;-87
2021/12/10 09:36:06;;;;;;;34.05;18.67;;;8.80;62.80;;;;;;4997708;28;20026;-87
2021/12/10 09:38:32;;;;;;;32.55;18.50;;;9.20;61.00;;;;;;4997748;28;20099;-86
2021/12/10 09:41:02;;;;;;;32.22;17.88;;;9.20;61.10;;;;;;4997363;28;20018;-86
2021/12/10 09:43:29;;;;;;;38.33;20.30;;;9.00;61.00;;;;;;4997490;28;20030;-85
2021/12/10 09:45:56;;;;;;;34.72;19.42;;;9.40;60.80;;;;;;4997935;28;20034;-85
2021/12/10 09:48:24;;;;;;;34.20;18.65;;;9.70;59.70;;;;;;4997214;28;20025;-87
2021/12/10 09:51:04;;;;;;;42.10;22.63;;;10.10;59.20;;;;;;4997643;28;20465;-86
2021/12/10 09:53:33;;;;;;;42.35;23.00;;;10.00;58.90;;;;;;4997259;28;20052;-87
2021/12/10 09:56:00;;;;;;;42.10;22.95;;;10.30;58.80;;;;;;4997474;28;20120;-87
2021/12/10 09:58:27;;;;;;;37.28;19.75;;;10.60;57.80;;;;;;4997217;28;20043;-86
2021/12/10 10:01:08;;;;;;;37.25;19.90;;;10.80;57.70;;;;;;4997143;28;20029;-85
2021/12/10 10:03:37;;;;;;;33.08;17.35;;;10.70;57.20;;;;;;4997147;28;20022;-86
2021/12/10 10:06:06;;;;;;;31.13;16.33;;;10.40;57.30;;;;;;4996817;28;20021;-85
2021/12/10 10:08:32;;;;;;;29.92;16.67;;;9.90;58.20;;;;;;4997105;28;20469;-86
2021/12/10 10:11:08;;;;;;;28.48;15.95;;;9.80;59.10;;;;;;4996782;28;20107;-85
2021/12/10 10:13:37;;;;;;;33.10;18.05;;;9.70;59.20;;;;;;4996831;28;20414;-85
2021/12/10 10:16:05;;;;;;;34.28;18.88;;;10.00;58.80;;;;;;4997034;28;20075;-84
2021/12/10 10:18:34;;;;;;;32.05;17.77;;;10.40;57.90;;;;;;4996967;28;20096;-85
2021/12/10 10:21:09;;;;;;;31.35;17.27;;;10.70;57.10;;;;;;4996835;28;20033;-84
2021/12/10 10:23:38;;;;;;;40.15;21.05;;;10.80;57.00;;;;;;4996982;28;20018;-85
2021/12/10 10:26:09;;;;;;;41.67;23.13;;;10.80;56.80;;;;;;4996811;28;20025;-84
2021/12/10 10:28:35;;;;;;;39.08;21.52;;;11.00;56.50;;;;;;4997307;28;20022;-84
2021/12/10 10:31:09;;;;;;;36.05;19.98;;;11.20;56.60;;;;;;4996606;28;20037;-85
2021/12/10 10:33:38;;;;;;;39.35;20.92;;;11.30;56.30;;;;;;4996980;28;20029;-86
2021/12/10 10:36:11;;;;;;;38.97;21.50;;;10.80;56.60;;;;;;4996711;28;20034;-85
2021/12/10 10:38:38;;;;;;;39.42;20.75;;;10.70;57.40;;;;;;4981048;28;20018;-85
2021/12/10 10:41:10;;;;;;;43.33;22.75;;;10.80;57.30;;;;;;4996583;28;20438;-85
2021/12/10 10:43:36;;;;;;;37.40;20.88;;;11.00;57.30;;;;;;4997136;28;20072;-85
2021/12/10 10:46:02;;;;;;;42.85;21.80;;;11.00;56.90;;;;;;4996705;28;20018;-84
2021/12/10 10:48:29;;;;;;;35.67;19.17;;;10.70;57.20;;;;;;4996533;28;20104;-85
2021/12/10 10:51:10;;;;;;;36.47;20.42;;;10.70;57.70;;;;;;4996553;28;20443;-85
2021/12/10 10:53:44;;;;;;;54.42;29.77;;;10.10;57.70;;;;;;4996799;28;20065;-87
2021/12/10 10:56:31;;;;;;;56.90;30.23;;;9.10;60.80;;;;;;4996596;28;20449;-86
2021/12/10 10:59:03;;;;;;;63.00;31.58;;;8.80;62.30;;;;;;4996355;28;20381;-86
2021/12/10 11:01:40;;;;;;;57.38;31.45;;;8.80;62.30;;;;;;4996442;28;20030;-85
2021/12/10 11:04:24;;;;;;;53.08;28.95;;;9.40;61.70;;;;;;4996152;28;20018;-86
2021/12/10 11:06:52;;;;;;;52.92;29.70;;;9.90;60.50;;;;;;4996736;28;20022;-85
2021/12/10 11:09:29;;;;;;;60.85;34.80;;;10.00;60.00;;;;;;4996633;28;20022;-85
2021/12/10 11:11:59;;;;;;;60.72;32.90;;;10.00;59.90;;;;;;4996825;28;20092;-87
2021/12/10 11:14:30;;;;;;;47.65;26.58;;;9.90;60.10;;;;;;4996325;28;20049;-87
2021/12/10 11:17:06;;;;;;;54.53;27.80;;;9.70;60.00;;;;;;4997008;28;20374;-85
2021/12/10 11:19:32;;;;;;;49.90;27.15;;;10.00;59.90;;;;;;4996692;28;20477;-84
2021/12/10 11:22:02;;;;;;;53.40;27.15;;;10.50;58.70;;;;;;4995953;28;20468;-84
2021/12/10 11:24:34;;;;;;;;;;;10.50;58.60;;;;;;4996565;28;20018;-86
2021/12/10 11:27:04;;;;;;;49.45;27.08;;;10.50;58.70;;;;;;4996177;28;19905;-87
2021/12/10 11:29:36;;;;;;;52.50;28.08;;;10.30;59.40;;;;;;4996258;28;20033;-87
2021/12/10 11:32:08;;;;;;;73.07;35.60;;;10.10;59.60;;;;;;4996372;28;20161;-86
2021/12/10 11:34:54;;;;;;;75.32;37.33;;;10.00;60.00;;;;;;4996185;28;20461;-87
2021/12/10 11:37:44;;;;;;;77.93;37.85;;;9.70;60.20;;;;;;4996196;28;20096;-87
2021/12/10 11:40:33;;;;;;;81.88;38.38;;;9.80;60.80;;;;;;4996123;28;20057;-87
2021/12/10 11:48:51;;;;;;;53.83;28.13;;;10.90;58.30;;;;;;5013429;28;20018;-86
2021/12/10 11:51:48;;;;;;;52.45;28.70;;;10.90;57.70;;;;;;4995642;28;20079;-86
2021/12/10 11:54:37;;;;;;;75.07;37.60;;;11.00;58.00;;;;;;4997834;28;20048;-84
2021/12/10 11:57:23;;;;;;;59.28;31.33;;;11.10;57.50;;;;;;4999307;28;20056;-85
2021/12/10 11:59:53;;;;;;;68.38;36.25;;;11.10;57.50;;;;;;4999626;28;20017;-84
2021/12/10 12:02:20;;;;;;;86.13;41.35;;;11.00;57.60;;;;;;4999457;28;20030;-84
2021/12/10 12:04:55;;;;;;;82.55;40.08;;;10.60;58.40;;;;;;4999546;28;20064;-87
2021/12/10 12:07:37;;;;;;;79.05;39.58;;;9.90;59.50;;;;;;4999590;28;20017;-87
2021/12/10 12:10:14;;;;;;;82.78;41.03;;;9.60;60.50;;;;;;4999228;28;20029;-85
2021/12/10 12:12:49;;;;;;;60.22;31.55;;;9.60;60.60;;;;;;4999182;28;20365;-85
2021/12/10 12:15:22;;;;;;;52.83;28.23;;;10.10;59.90;;;;;;4999718;28;20030;-85
2021/12/10 12:18:07;;;;;;;52.63;26.85;;;10.50;58.70;;;;;;4999383;28;20141;-85
2021/12/10 12:20:46;;;;;;;54.35;26.95;;;10.70;58.40;;;;;;4999059;28;20026;-84
2021/12/10 12:26:22;;;;;;;50.35;26.38;;;10.60;58.20;;;;;;4937138;29;20480;-87
2021/12/10 12:28:54;;;;;;;51.42;27.10;;;10.70;58.50;;;;;;4937220;29;20027;-84
2021/12/10 12:31:22;;;;;;;49.30;26.55;;;10.80;58.40;;;;;;4936984;29;20050;-85
2021/12/10 12:34:02;;;;;;;62.35;30.45;;;11.10;57.50;;;;;;4936837;29;20023;-85
2021/12/10 12:36:34;;;;;;;95.05;43.50;;;11.30;57.50;;;;;;4936971;29;20528;-85
2021/12/10 12:39:06;;;;;;;89.30;44.80;;;11.40;56.90;;;;;;4937585;29;20126;-86
2021/12/10 12:41:39;;;;;;;49.00;27.63;;;11.40;56.80;;;;;;4936805;29;20053;-85
2021/12/10 12:44:09;;;;;;;50.42;28.55;;;11.30;57.20;;;;;;4936544;29;20233;-85
2021/12/10 12:46:55;;;;;;;50.45;28.33;;;11.00;57.30;;;;;;4936699;29;20059;-85
2021/12/10 12:49:21;;;;;;;51.25;28.15;;;10.70;58.30;;;;;;4936637;29;20386;-84
2021/12/10 12:52:14;;;;;;;52.00;29.13;;;10.90;57.90;;;;;;4936668;29;20086;-84
2021/12/10 12:54:59;;;;;;;56.97;30.92;;;11.20;57.30;;;;;;4934268;29;20372;-84
2021/12/10 12:57:53;;;;;;;54.03;29.77;;;11.20;57.20;;;;;;4920357;29;20606;-86
2021/12/10 13:00:22;;;;;;;45.17;25.50;;;10.70;58.50;;;;;;4936194;29;20024;-86
2021/12/10 13:02:50;;;;;;;43.30;24.13;;;10.20;58.70;;;;;;4972162;28;20033;-86
2021/12/10 13:05:16;;;;;;;39.85;24.40;;;10.40;59.20;;;;;;4998168;28;20026;-84
2021/12/10 13:07:42;;;;;;;52.78;28.63;;;10.70;58.50;;;;;;4998206;28;20076;-84
2021/12/10 13:10:16;;;;;;;54.20;30.80;;;10.90;57.90;;;;;;4998183;28;20370;-87
2021/12/10 13:12:56;;;;;;;44.65;26.85;;;11.00;57.20;;;;;;4998008;28;20084;-85
2021/12/10 13:15:27;;;;;;;49.03;27.77;;;11.00;57.40;;;;;;4998287;28;20091;-85
2021/12/10 13:18:03;;;;;;;48.75;27.42;;;10.90;57.60;;;;;;4998557;28;20103;-87